sensor_id;sensor_type;location;lat;lon;timestamp;temperature;humidity
6468;DHT22;3267;48.794;9.928;2023-02-28T05:21:41;2.10;89.10
6468;DHT22;3267;48.794;9.928;2023-02-28T09:31:20;4.50;91.80
6468;DHT22;3267;48.794;9.928;2023-02-28T09:43:41;4.60;88.70
6468;DHT22;3267;48.794;9.928;2023-02-28T09:59:23;4.80;83.30
6468;DHT22;3267;48.794;9.928;2023-02-28T10:07:44;5.00;84.10
6468;DHT22;3267;48.794;9.928;2023-02-28T10:10:29;4.90;80.60
6468;DHT22;3267;48.794;9.928;2023-02-28T10:13:00;4.90;71.10
6468;DHT22;3267;48.794;9.928;2023-02-28T10:15:31;5.20;74.60
6468;DHT22;3267;48.794;9.928;2023-02-28T10:18:03;5.10;77.60
6468;DHT22;3267;48.794;9.928;2023-02-28T10:20:33;5.30;79.30
6468;DHT22;3267;48.794;9.928;2023-02-28T10:23:11;5.30;80.70
6468;DHT22;3267;48.794;9.928;2023-02-28T10:28:14;5.20;82.00
6468;DHT22;3267;48.794;9.928;2023-02-28T10:33:19;5.50;83.70
6468;DHT22;3267;48.794;9.928;2023-02-28T11:08:56;6.20;78.80
6468;DHT22;3267;48.794;9.928;2023-02-28T11:11:25;5.80;65.40
6468;DHT22;3267;48.794;9.928;2023-02-28T11:13:58;6.00;66.10
6468;DHT22;3267;48.794;9.928;2023-02-28T11:16:34;6.20;66.20
6468;DHT22;3267;48.794;9.928;2023-02-28T11:19:00;6.00;65.30
6468;DHT22;3267;48.794;9.928;2023-02-28T11:24:22;6.20;67.90
6468;DHT22;3267;48.794;9.928;2023-02-28T11:32:19;6.90;63.80
6468;DHT22;3267;48.794;9.928;2023-02-28T11:34:46;6.80;63.40
6468;DHT22;3267;48.794;9.928;2023-02-28T11:37:15;7.10;63.70
6468;DHT22;3267;48.794;9.928;2023-02-28T11:39:42;7.00;62.60
6468;DHT22;3267;48.794;9.928;2023-02-28T11:44:58;7.50;62.90
6468;DHT22;3267;48.794;9.928;2023-02-28T11:50:42;7.40;62.50
6468;DHT22;3267;48.794;9.928;2023-02-28T11:53:20;7.70;63.00
6468;DHT22;3267;48.794;9.928;2023-02-28T11:55:54;8.10;64.60
6468;DHT22;3267;48.794;9.928;2023-02-28T11:58:33;8.00;63.50
6468;DHT22;3267;48.794;9.928;2023-02-28T12:06:45;8.10;61.50
6468;DHT22;3267;48.794;9.928;2023-02-28T12:12:20;8.20;61.50
6468;DHT22;3267;48.794;9.928;2023-02-28T12:21:09;8.50;59.50
6468;DHT22;3267;48.794;9.928;2023-02-28T12:26:42;8.50;59.30
6468;DHT22;3267;48.794;9.928;2023-02-28T12:29:17;8.50;59.70
6468;DHT22;3267;48.794;9.928;2023-02-28T12:32:04;8.70;59.80
6468;DHT22;3267;48.794;9.928;2023-02-28T12:34:37;8.40;59.10
6468;DHT22;3267;48.794;9.928;2023-02-28T12:37:12;8.40;59.10
6468;DHT22;3267;48.794;9.928;2023-02-28T12:39:51;9.00;60.20
6468;DHT22;3267;48.794;9.928;2023-02-28T12:42:27;8.90;59.10
6468;DHT22;3267;48.794;9.928;2023-02-28T12:45:00;9.00;60.20
6468;DHT22;3267;48.794;9.928;2023-02-28T12:47:26;8.90;59.20
6468;DHT22;3267;48.794;9.928;2023-02-28T12:50:00;8.90;59.40
6468;DHT22;3267;48.794;9.928;2023-02-28T12:52:48;8.90;58.80
6468;DHT22;3267;48.794;9.928;2023-02-28T12:58:21;9.00;58.90
6468;DHT22;3267;48.794;9.928;2023-02-28T13:04:00;9.10;58.60
6468;DHT22;3267;48.794;9.928;2023-02-28T13:07:07;9.10;58.30
6468;DHT22;3267;48.794;9.928;2023-02-28T13:09:39;9.20;58.40
6468;DHT22;3267;48.794;9.928;2023-02-28T13:12:13;9.30;57.90
6468;DHT22;3267;48.794;9.928;2023-02-28T13:14:40;9.40;58.20
6468;DHT22;3267;48.794;9.928;2023-02-28T13:24:56;9.70;60.20
6468;DHT22;3267;48.794;9.928;2023-02-28T13:27:37;9.80;58.50
6468;DHT22;3267;48.794;9.928;2023-02-28T13:30:59;9.90;58.60
6468;DHT22;3267;48.794;9.928;2023-02-28T13:33:28;10.10;56.90
6468;DHT22;3267;48.794;9.928;2023-02-28T13:51:53;10.90;57.40
6468;DHT22;3267;48.794;9.928;2023-02-28T13:57:25;11.40;57.00
6468;DHT22;3267;48.794;9.928;2023-02-28T14:02:54;11.90;56.90
6468;DHT22;3267;48.794;9.928;2023-02-28T14:05:25;11.90;57.50
6468;DHT22;3267;48.794;9.928;2023-02-28T14:07:54;11.90;57.70
6468;DHT22;3267;48.794;9.928;2023-02-28T14:10:33;12.00;56.50
6468;DHT22;3267;48.794;9.928;2023-02-28T14:13:13;12.10;55.40
6468;DHT22;3267;48.794;9.928;2023-02-28T14:15:43;12.10;55.70
6468;DHT22;3267;48.794;9.928;2023-02-28T14:18:29;12.10;55.00
6468;DHT22;3267;48.794;9.928;2023-02-28T14:21:14;13.40;56.50
6468;DHT22;3267;48.794;9.928;2023-02-28T14:32:25;11.90;54.90
6468;DHT22;3267;48.794;9.928;2023-02-28T14:35:05;12.10;55.80
6468;DHT22;3267;48.794;9.928;2023-02-28T14:37:39;12.20;56.40
6468;DHT22;3267;48.794;9.928;2023-02-28T14:42:55;12.10;55.10
6468;DHT22;3267;48.794;9.928;2023-02-28T14:45:21;12.10;55.10
6468;DHT22;3267;48.794;9.928;2023-02-28T14:47:49;12.20;54.80
6468;DHT22;3267;48.794;9.928;2023-02-28T14:50:35;12.80;55.80
6468;DHT22;3267;48.794;9.928;2023-02-28T14:53:01;12.30;54.80
6468;DHT22;3267;48.794;9.928;2023-02-28T14:55:35;12.30;55.70
6468;DHT22;3267;48.794;9.928;2023-02-28T14:58:04;12.50;56.10
6468;DHT22;3267;48.794;9.928;2023-02-28T15:00:36;12.60;54.70
6468;DHT22;3267;48.794;9.928;2023-02-28T15:03:19;12.70;55.60
6468;DHT22;3267;48.794;9.928;2023-02-28T15:06:01;12.70;55.20
6468;DHT22;3267;48.794;9.928;2023-02-28T15:08:27;12.50;54.10
6468;DHT22;3267;48.794;9.928;2023-02-28T15:11:01;12.20;53.70
6468;DHT22;3267;48.794;9.928;2023-02-28T15:13:53;12.10;53.90
6468;DHT22;3267;48.794;9.928;2023-02-28T15:16:30;11.90;55.30
6468;DHT22;3267;48.794;9.928;2023-02-28T15:19:02;11.80;54.90
6468;DHT22;3267;48.794;9.928;2023-02-28T15:21:34;11.60;55.80
6468;DHT22;3267;48.794;9.928;2023-02-28T15:24:07;11.30;54.80
6468;DHT22;3267;48.794;9.928;2023-02-28T15:26:39;11.10;54.60
6468;DHT22;3267;48.794;9.928;2023-02-28T15:29:12;10.90;54.50
6468;DHT22;3267;48.794;9.928;2023-02-28T15:31:49;10.80;55.50
6468;DHT22;3267;48.794;9.928;2023-02-28T15:37:00;10.30;55.40
6468;DHT22;3267;48.794;9.928;2023-02-28T15:39:27;10.40;55.50
6468;DHT22;3267;48.794;9.928;2023-02-28T15:42:20;10.30;54.90
6468;DHT22;3267;48.794;9.928;2023-02-28T15:44:49;10.20;55.00
6468;DHT22;3267;48.794;9.928;2023-02-28T15:47:19;10.00;55.10
6468;DHT22;3267;48.794;9.928;2023-02-28T15:50:08;9.90;55.80
6468;DHT22;3267;48.794;9.928;2023-02-28T15:52:41;9.90;57.30
6468;DHT22;3267;48.794;9.928;2023-02-28T15:55:10;9.70;56.00
6468;DHT22;3267;48.794;9.928;2023-02-28T15:57:39;9.60;56.10
6468;DHT22;3267;48.794;9.928;2023-02-28T16:00:11;9.70;56.20
6468;DHT22;3267;48.794;9.928;2023-02-28T16:02:38;9.60;56.20
6468;DHT22;3267;48.794;9.928;2023-02-28T16:07:40;9.40;57.00
6468;DHT22;3267;48.794;9.928;2023-02-28T16:10:08;9.40;57.00
6468;DHT22;3267;48.794;9.928;2023-02-28T16:12:38;9.00;55.90
6468;DHT22;3267;48.794;9.928;2023-02-28T16:15:17;9.00;56.60
6468;DHT22;3267;48.794;9.928;2023-02-28T16:17:43;8.90;56.40
6468;DHT22;3267;48.794;9.928;2023-02-28T16:20:23;9.10;56.70
6468;DHT22;3267;48.794;9.928;2023-02-28T16:22:50;9.40;57.40
6468;DHT22;3267;48.794;9.928;2023-02-28T16:25:34;9.20;57.50
6468;DHT22;3267;48.794;9.928;2023-02-28T16:27:59;9.00;56.50
6468;DHT22;3267;48.794;9.928;2023-02-28T16:30:27;8.70;56.70
6468;DHT22;3267;48.794;9.928;2023-02-28T16:32:55;8.80;57.70
6468;DHT22;3267;48.794;9.928;2023-02-28T16:35:21;8.80;58.20
6468;DHT22;3267;48.794;9.928;2023-02-28T16:37:47;8.80;58.00
6468;DHT22;3267;48.794;9.928;2023-02-28T16:40:24;8.60;58.50
6468;DHT22;3267;48.794;9.928;2023-02-28T16:42:53;8.70;59.60
6468;DHT22;3267;48.794;9.928;2023-02-28T16:45:23;8.60;57.80
6468;DHT22;3267;48.794;9.928;2023-02-28T16:47:50;8.70;57.90
6468;DHT22;3267;48.794;9.928;2023-02-28T16:50:21;8.90;57.90
6468;DHT22;3267;48.794;9.928;2023-02-28T16:52:47;8.60;58.10
6468;DHT22;3267;48.794;9.928;2023-02-28T16:55:15;8.70;58.10
6468;DHT22;3267;48.794;9.928;2023-02-28T16:57:42;8.60;57.70
6468;DHT22;3267;48.794;9.928;2023-02-28T17:00:11;8.20;57.80
6468;DHT22;3267;48.794;9.928;2023-02-28T17:02:38;8.60;58.10
6468;DHT22;3267;48.794;9.928;2023-02-28T17:05:04;8.30;58.20
6468;DHT22;3267;48.794;9.928;2023-02-28T17:07:30;8.40;58.10
6468;DHT22;3267;48.794;9.928;2023-02-28T17:09:55;8.40;58.30
6468;DHT22;3267;48.794;9.928;2023-02-28T17:12:21;8.20;57.90
6468;DHT22;3267;48.794;9.928;2023-02-28T17:14:46;8.50;58.10
6468;DHT22;3267;48.794;9.928;2023-02-28T17:17:18;8.20;58.20
6468;DHT22;3267;48.794;9.928;2023-02-28T17:19:44;8.00;57.90
6468;DHT22;3267;48.794;9.928;2023-02-28T17:22:10;8.10;58.00
6468;DHT22;3267;48.794;9.928;2023-02-28T17:24:36;7.80;58.00
6468;DHT22;3267;48.794;9.928;2023-02-28T17:27:03;8.00;58.30
6468;DHT22;3267;48.794;9.928;2023-02-28T17:29:29;7.90;58.60
6468;DHT22;3267;48.794;9.928;2023-02-28T17:31:54;8.00;58.60
6468;DHT22;3267;48.794;9.928;2023-02-28T17:34:20;7.80;58.30
6468;DHT22;3267;48.794;9.928;2023-02-28T17:36:49;7.80;57.80
6468;DHT22;3267;48.794;9.928;2023-02-28T17:39:16;7.80;57.70
6468;DHT22;3267;48.794;9.928;2023-02-28T17:41:54;7.60;57.70
6468;DHT22;3267;48.794;9.928;2023-02-28T17:44:20;7.70;57.70
6468;DHT22;3267;48.794;9.928;2023-02-28T17:46:46;7.60;58.00
6468;DHT22;3267;48.794;9.928;2023-02-28T17:49:13;7.70;58.20
6468;DHT22;3267;48.794;9.928;2023-02-28T17:51:38;7.50;57.80
6468;DHT22;3267;48.794;9.928;2023-02-28T17:54:04;7.40;57.70
6468;DHT22;3267;48.794;9.928;2023-02-28T17:56:30;7.40;58.70
6468;DHT22;3267;48.794;9.928;2023-02-28T17:58:58;7.50;59.00
6468;DHT22;3267;48.794;9.928;2023-02-28T18:01:24;7.40;57.90
6468;DHT22;3267;48.794;9.928;2023-02-28T18:03:52;7.30;58.40
6468;DHT22;3267;48.794;9.928;2023-02-28T18:06:37;7.30;57.90
6468;DHT22;3267;48.794;9.928;2023-02-28T18:09:20;7.20;58.40
6468;DHT22;3267;48.794;9.928;2023-02-28T18:11:50;7.60;60.40
6468;DHT22;3267;48.794;9.928;2023-02-28T18:14:17;7.40;59.80
6468;DHT22;3267;48.794;9.928;2023-02-28T18:16:44;7.70;58.70
6468;DHT22;3267;48.794;9.928;2023-02-28T18:19:10;7.30;59.00
6468;DHT22;3267;48.794;9.928;2023-02-28T18:21:40;7.20;59.10
6468;DHT22;3267;48.794;9.928;2023-02-28T18:24:07;7.20;58.90
6468;DHT22;3267;48.794;9.928;2023-02-28T18:26:33;7.10;58.80
6468;DHT22;3267;48.794;9.928;2023-02-28T18:28:59;7.10;58.80
6468;DHT22;3267;48.794;9.928;2023-02-28T18:31:25;7.20;58.60
6468;DHT22;3267;48.794;9.928;2023-02-28T18:33:51;7.00;58.90
6468;DHT22;3267;48.794;9.928;2023-02-28T18:36:18;7.10;59.40
6468;DHT22;3267;48.794;9.928;2023-02-28T18:38:45;6.90;58.60
6468;DHT22;3267;48.794;9.928;2023-02-28T18:41:11;7.10;58.80
6468;DHT22;3267;48.794;9.928;2023-02-28T18:46:11;6.80;58.30
6468;DHT22;3267;48.794;9.928;2023-02-28T18:48:39;7.00;59.70
6468;DHT22;3267;48.794;9.928;2023-02-28T18:51:06;7.20;62.00
6468;DHT22;3267;48.794;9.928;2023-02-28T18:53:33;6.90;59.80
6468;DHT22;3267;48.794;9.928;2023-02-28T18:56:00;6.70;59.50
6468;DHT22;3267;48.794;9.928;2023-02-28T18:58:29;6.90;59.50
6468;DHT22;3267;48.794;9.928;2023-02-28T19:00:59;6.50;59.50
6468;DHT22;3267;48.794;9.928;2023-02-28T19:03:24;6.70;59.40
6468;DHT22;3267;48.794;9.928;2023-02-28T19:05:57;6.40;59.40
6468;DHT22;3267;48.794;9.928;2023-02-28T19:08:24;6.70;59.60
6468;DHT22;3267;48.794;9.928;2023-02-28T19:10:50;6.00;58.70
6468;DHT22;3267;48.794;9.928;2023-02-28T19:18:08;6.40;58.40
6468;DHT22;3267;48.794;9.928;2023-02-28T19:22:59;6.30;58.70
6468;DHT22;3267;48.794;9.928;2023-02-28T19:27:54;6.30;59.60
6468;DHT22;3267;48.794;9.928;2023-02-28T19:32:48;6.30;58.90
6468;DHT22;3267;48.794;9.928;2023-02-28T19:35:14;6.10;60.20
6468;DHT22;3267;48.794;9.928;2023-02-28T19:40:07;6.30;60.30
6468;DHT22;3267;48.794;9.928;2023-02-28T19:42:34;6.10;58.80
6468;DHT22;3267;48.794;9.928;2023-02-28T19:49:55;6.10;59.10
6468;DHT22;3267;48.794;9.928;2023-02-28T19:52:21;6.20;59.50
6468;DHT22;3267;48.794;9.928;2023-02-28T19:54:47;5.90;60.20
6468;DHT22;3267;48.794;9.928;2023-02-28T19:57:13;6.10;61.10
6468;DHT22;3267;48.794;9.928;2023-02-28T19:59:39;5.90;60.40
6468;DHT22;3267;48.794;9.928;2023-02-28T20:02:08;5.90;59.00
6468;DHT22;3267;48.794;9.928;2023-02-28T20:09:30;6.40;59.40
6468;DHT22;3267;48.794;9.928;2023-02-28T20:11:56;5.90;61.50
6468;DHT22;3267;48.794;9.928;2023-02-28T20:14:24;5.70;59.00
6468;DHT22;3267;48.794;9.928;2023-02-28T20:19:16;5.70;59.20
6468;DHT22;3267;48.794;9.928;2023-02-28T20:21:43;5.70;59.80
6468;DHT22;3267;48.794;9.928;2023-02-28T20:24:10;5.70;61.20
6468;DHT22;3267;48.794;9.928;2023-02-28T20:26:39;5.60;59.70
6468;DHT22;3267;48.794;9.928;2023-02-28T20:29:06;5.60;59.10
6468;DHT22;3267;48.794;9.928;2023-02-28T20:33:59;5.40;61.80
6468;DHT22;3267;48.794;9.928;2023-02-28T20:41:17;5.30;62.50
6468;DHT22;3267;48.794;9.928;2023-02-28T20:43:44;5.50;63.20
6468;DHT22;3267;48.794;9.928;2023-02-28T20:51:04;5.20;59.00
6468;DHT22;3267;48.794;9.928;2023-02-28T20:53:33;5.20;59.20
6468;DHT22;3267;48.794;9.928;2023-02-28T22:21:39;4.20;81.30
